Etusivu
METAR-TAF:

METAR-TAF

Lentoasemat :

Kalmarin lentoasema

Kalmar, Ruotsi

Leveyspiiri: 56-44N, Pituuspiiri: 016-18E, korkeus merenpinnasta: 16 m

Tämänhetkinen sää

Tämä raportti tehtiin 26 minuuttia sitten, kello 11.50 UTC
Tuuli 5 kn etelästä/kaakosta
Lämpötila 7°C
Kosteus 93%
Ilmanpaine 1002 hPa
Näkyvyys 10 km tai enemmän
Muutamia pilviä 4300 ft:n korkeudessa

METAR: ESMQ 131150Z 15005KT 9999 FEW043 07/06 Q1002

Aika: 13:16 (12:16 UTC)

Sääennuste

Tämä raportti tehtiin 46 minuuttia sitten, kello 11.30 UTC
Ennuste voimassa 13. päivästä klo 12 UTC - 13. päivään klo 21 UTC
Tuuli 4 kn etelästä/kaakosta
Näkyvyys 10 km tai enemmän
Hajanaisia pilviä 1800 ft:n korkeudessa
Todennäköisyys 40%
13. päivästä klo 18 UTC - 13. päivään klo 21 UTC
Hajonneita pilviä 1400 ft:n korkeudessa

TAF: ESMQ 131130Z 1312/1321 15004KT 9999 SCT018 PROB40 1318/1321 BKN014

Säähavainnot ja -ennusteet yli 4000 lentoasemalta (METAR- ja TAF-raportit).

Käytössä olevat sääasemat on merkitty karttaan keltaisilla ja punaisilla pisteillä.

Aseta hiiri pisteen päälle nähdäksesi sääaseman nimen.

Klikkaa sitten nähdäksesi säähavainnot ja -ennusteet.

Kartan vaihtaminen: klikkaa mustalla rastilla varustettuja vihreitä pisteitä, niin voit zoomata sisään; viivalla varustettua vihreää pistettä, niin voit zoomata ulos tai vihreitä nuolia, niin pääset viereisille kartoille.


METAR-TAF: